Time;durP1;ratioP1;P1;durP2;ratioP2;P2;SDS_P1;SDS_P2;PMS_P1;PMS_P2;Temp;Humidity;BMP_temperature;BMP_pressure;BME280_temperature;BME280_humidity;BME280_pressure;Samples;Min_cycle;Max_cycle;Signal;HPM_P1;HPM_P2
2023/12/16 00:00:59;;;;;;;44.95;21.20;;;4.60;99.90;;;;;;5074766;28;20506;-56
2023/12/16 00:03:29;;;;;;;43.70;20.60;;;4.60;99.90;;;;;;5074727;28;20043;-56
2023/12/16 00:05:55;;;;;;;53.88;24.75;;;4.60;99.90;;;;;;5074720;28;20474;-56
2023/12/16 00:08:22;;;;;;;30.38;16.85;;;4.50;99.90;;;;;;5074774;27;20523;-56
2023/12/16 00:10:47;;;;;;;25.98;14.38;;;4.50;99.90;;;;;;5074590;28;20025;-56
2023/12/16 00:13:13;;;;;;;30.02;17.30;;;4.60;99.90;;;;;;5075499;28;20021;-56
2023/12/16 00:15:39;;;;;;;51.60;25.23;;;4.60;99.90;;;;;;5078091;28;20051;-56
2023/12/16 00:18:05;;;;;;;32.58;17.52;;;4.70;99.90;;;;;;5077942;27;20505;-56
2023/12/16 00:20:31;;;;;;;47.92;21.80;;;4.70;99.90;;;;;;5078036;28;20081;-56
2023/12/16 00:22:57;;;;;;;37.75;20.25;;;4.70;99.90;;;;;;5078129;28;20093;-56
2023/12/16 00:25:23;;;;;;;31.25;16.95;;;4.60;99.90;;;;;;5078084;28;20378;-56
2023/12/16 00:27:49;;;;;;;43.90;19.15;;;4.40;99.90;;;;;;5077972;28;20029;-56
2023/12/16 00:30:15;;;;;;;29.30;15.15;;;4.50;99.90;;;;;;5077867;28;20153;-56
2023/12/16 00:32:41;;;;;;;364.38;105.05;;;4.60;99.90;;;;;;5077957;28;20059;-56
2023/12/16 00:35:07;;;;;;;227.70;69.78;;;4.60;99.90;;;;;;5077820;28;20051;-56
2023/12/16 00:37:34;;;;;;;111.30;35.30;;;4.60;99.90;;;;;;5077701;28;20044;-57
2023/12/16 00:40:01;;;;;;;106.20;36.38;;;4.60;99.90;;;;;;5077676;27;20044;-56
2023/12/16 00:42:27;;;;;;;16.80;9.82;;;4.60;99.90;;;;;;5077948;28;20107;-56
2023/12/16 00:44:56;;;;;;;33.05;13.63;;;4.60;99.90;;;;;;5077669;28;20031;-56
2023/12/16 00:47:21;;;;;;;51.00;19.17;;;4.60;99.90;;;;;;5077657;28;20067;-56
2023/12/16 00:49:47;;;;;;;65.03;22.98;;;4.50;99.90;;;;;;5077446;28;20378;-56
2023/12/16 00:52:13;;;;;;;98.78;31.35;;;4.50;99.90;;;;;;5077577;28;20021;-56
2023/12/16 00:54:39;;;;;;;139.32;40.38;;;4.40;99.90;;;;;;5077304;27;20111;-56
2023/12/16 00:57:05;;;;;;;52.83;18.73;;;4.40;99.90;;;;;;5077415;28;20374;-56
2023/12/16 00:59:31;;;;;;;93.63;26.73;;;4.30;99.90;;;;;;5077451;28;20424;-56
2023/12/16 01:01:57;;;;;;;36.13;13.68;;;4.30;99.90;;;;;;5077123;28;20024;-56
2023/12/16 01:04:22;;;;;;;21.23;9.90;;;4.20;99.90;;;;;;5077554;28;20036;-56
2023/12/16 01:06:49;;;;;;;35.90;13.63;;;4.10;99.90;;;;;;5077284;28;20020;-56
2023/12/16 01:09:14;;;;;;;84.80;24.83;;;4.10;99.90;;;;;;5077095;27;20044;-56
2023/12/16 01:11:41;;;;;;;99.68;30.55;;;4.00;99.90;;;;;;5077059;28;20027;-56
2023/12/16 01:14:08;;;;;;;62.65;20.40;;;4.00;99.90;;;;;;5077174;28;20424;-56
2023/12/16 01:16:34;;;;;;;44.17;16.67;;;4.00;99.90;;;;;;5076973;28;20048;-56
2023/12/16 01:19:00;;;;;;;18.00;9.75;;;3.90;99.90;;;;;;5076974;28;20028;-56
2023/12/16 01:21:26;;;;;;;16.35;8.65;;;3.80;99.90;;;;;;5077077;28;20066;-56
2023/12/16 01:23:52;;;;;;;12.30;7.82;;;3.80;99.90;;;;;;5076668;27;20270;-57
2023/12/16 01:26:18;;;;;;;18.00;9.25;;;3.70;99.90;;;;;;5076845;28;20048;-56
2023/12/16 01:28:43;;;;;;;32.30;11.82;;;3.70;99.90;;;;;;5076824;28;20021;-56
2023/12/16 01:31:09;;;;;;;18.90;9.00;;;3.70;99.90;;;;;;5076719;28;20462;-56
2023/12/16 01:33:35;;;;;;;13.52;7.95;;;3.60;99.90;;;;;;5076833;28;20565;-56
2023/12/16 01:36:02;;;;;;;15.07;8.15;;;3.50;99.90;;;;;;5076749;28;20036;-56
2023/12/16 01:38:28;;;;;;;13.55;8.10;;;3.50;99.90;;;;;;5076522;28;20025;-56
2023/12/16 01:40:54;;;;;;;28.05;13.00;;;3.50;99.90;;;;;;5076501;27;20090;-56
2023/12/16 01:43:19;;;;;;;33.17;15.32;;;3.50;99.90;;;;;;5076583;28;20064;-56
2023/12/16 01:45:46;;;;;;;127.57;46.67;;;3.40;99.90;;;;;;5076433;28;20394;-56
2023/12/16 01:48:13;;;;;;;56.38;22.00;;;3.20;99.90;;;;;;5076340;28;20105;-56
2023/12/16 01:50:39;;;;;;;50.60;21.38;;;3.10;99.90;;;;;;5076439;28;20092;-56
2023/12/16 01:53:06;;;;;;;33.42;14.38;;;3.10;99.90;;;;;;5076355;28;20028;-56
2023/12/16 01:55:32;;;;;;;34.63;14.98;;;3.10;99.90;;;;;;5076308;27;20033;-56
2023/12/16 01:58:00;;;;;;;23.63;11.27;;;3.30;99.90;;;;;;5076281;28;20038;-56
2023/12/16 02:00:28;;;;;;;123.93;39.95;;;3.00;99.90;;;;;;5076228;28;20032;-56
2023/12/16 02:02:55;;;;;;;53.72;21.13;;;2.80;99.90;;;;;;5076178;28;20043;-56
2023/12/16 02:05:20;;;;;;;82.88;30.40;;;2.70;99.90;;;;;;5076129;28;20034;-56
2023/12/16 02:07:46;;;;;;;84.30;34.35;;;2.60;99.90;;;;;;5075935;28;20024;-56
2023/12/16 02:10:13;;;;;;;58.92;25.35;;;2.50;99.90;;;;;;5075936;27;20124;-56
2023/12/16 02:12:39;;;;;;;31.10;14.32;;;2.40;99.90;;;;;;5076049;28;20024;-56
2023/12/16 02:15:05;;;;;;;21.25;10.65;;;2.30;99.90;;;;;;5075933;28;20557;-56
2023/12/16 02:17:31;;;;;;;18.63;8.80;;;2.30;99.90;;;;;;5075780;28;20069;-56
2023/12/16 02:19:57;;;;;;;27.17;13.18;;;2.40;99.90;;;;;;5076209;28;20021;-56
2023/12/16 02:22:23;;;;;;;42.05;17.95;;;2.40;99.90;;;;;;5075908;28;20024;-56
2023/12/16 02:24:50;;;;;;;57.13;26.20;;;2.40;99.90;;;;;;5075690;27;20032;-56
2023/12/16 02:27:16;;;;;;;32.47;16.35;;;2.20;99.90;;;;;;5075732;28;20031;-56
2023/12/16 02:29:42;;;;;;;38.33;18.70;;;2.20;99.90;;;;;;5075625;28;20040;-56
2023/12/16 02:32:09;;;;;;;26.70;13.27;;;2.10;99.90;;;;;;5075961;28;20058;-56
2023/12/16 02:34:35;;;;;;;15.88;8.77;;;2.00;99.90;;;;;;5075956;28;20028;-56
2023/12/16 02:37:05;;;;;;;14.57;8.02;;;2.10;99.90;;;;;;5075254;28;20021;-56
2023/12/16 02:39:33;;;;;;;39.47;19.48;;;2.10;99.90;;;;;;5075927;28;20111;-56
2023/12/16 02:41:59;;;;;;;38.50;19.15;;;2.10;99.90;;;;;;5075562;27;20494;-56
2023/12/16 02:44:25;;;;;;;29.00;15.25;;;2.00;99.90;;;;;;5075534;28;20032;-56
2023/12/16 02:46:51;;;;;;;29.98;14.43;;;1.90;99.90;;;;;;5074081;28;20084;-56
2023/12/16 02:49:16;;;;;;;21.33;11.82;;;2.00;99.90;;;;;;5075381;28;20029;-56
2023/12/16 02:51:42;;;;;;;18.08;9.90;;;2.00;99.90;;;;;;5075526;28;20028;-56
2023/12/16 02:54:08;;;;;;;23.77;10.65;;;2.00;99.90;;;;;;5075417;28;20486;-56
2023/12/16 02:56:34;;;;;;;21.15;11.75;;;2.00;99.90;;;;;;5074045;28;20486;-56
2023/12/16 02:59:01;;;;;;;31.23;13.85;;;2.00;99.90;;;;;;5075369;27;20372;-56
2023/12/16 03:01:27;;;;;;;30.58;15.95;;;2.00;99.90;;;;;;5075281;28;20032;-56
2023/12/16 03:03:53;;;;;;;24.67;12.88;;;2.00;99.90;;;;;;5075450;28;20116;-56
2023/12/16 03:06:19;;;;;;;39.35;18.52;;;2.00;99.90;;;;;;5075155;28;20033;-56
2023/12/16 03:08:45;;;;;;;53.67;26.98;;;2.00;99.90;;;;;;5075337;28;20371;-56
2023/12/16 03:11:11;;;;;;;47.90;23.85;;;2.10;99.90;;;;;;5075188;28;20477;-56
2023/12/16 03:13:37;;;;;;;39.97;22.05;;;2.20;99.90;;;;;;5075253;28;20070;-56
2023/12/16 03:16:03;;;;;;;52.65;24.80;;;2.20;99.90;;;;;;5075383;27;20037;-56
2023/12/16 03:18:29;;;;;;;64.40;31.42;;;2.20;99.90;;;;;;5075152;28;20028;-56
2023/12/16 03:20:55;;;;;;;38.83;18.73;;;2.20;99.90;;;;;;5075340;28;20092;-56
2023/12/16 03:23:21;;;;;;;30.88;16.00;;;2.20;99.90;;;;;;5075207;28;20421;-56
2023/12/16 03:25:47;;;;;;;25.67;13.18;;;2.30;99.90;;;;;;5075181;28;20025;-56
2023/12/16 03:28:13;;;;;;;22.98;13.43;;;2.30;99.90;;;;;;5075102;28;20031;-56
2023/12/16 03:30:40;;;;;;;15.65;10.13;;;2.30;99.90;;;;;;5074835;27;20062;-56
2023/12/16 03:33:09;;;;;;;18.15;10.70;;;2.40;99.90;;;;;;5075193;28;20461;-56
2023/12/16 03:35:35;;;;;;;17.40;10.27;;;2.40;99.90;;;;;;5075049;28;20086;-56
2023/12/16 03:38:01;;;;;;;17.42;10.63;;;2.40;99.90;;;;;;5074965;28;20027;-56
2023/12/16 03:40:28;;;;;;;21.40;11.07;;;2.40;99.90;;;;;;5074943;28;20052;-56
2023/12/16 03:42:53;;;;;;;41.72;18.95;;;2.50;99.90;;;;;;5075061;28;20494;-56
2023/12/16 03:45:19;;;;;;;27.73;14.30;;;2.50;99.90;;;;;;5074807;27;20036;-56
2023/12/16 03:47:46;;;;;;;26.92;12.48;;;2.40;99.90;;;;;;5074978;28;20036;-56
2023/12/16 03:50:12;;;;;;;22.40;11.80;;;2.50;99.90;;;;;;5078753;28;20107;-56
2023/12/16 03:52:38;;;;;;;26.55;14.13;;;2.50;99.90;;;;;;5078641;28;20063;-56
2023/12/16 03:55:04;;;;;;;19.73;11.13;;;2.50;99.90;;;;;;5078600;28;20021;-56
2023/12/16 03:57:32;;;;;;;22.20;12.23;;;2.50;99.90;;;;;;5078632;28;20029;-56
2023/12/16 03:59:58;;;;;;;18.30;10.77;;;2.50;99.90;;;;;;5078435;27;20043;-56
2023/12/16 04:02:24;;;;;;;15.80;8.88;;;2.60;99.90;;;;;;5078568;28;20123;-56
2023/12/16 04:04:50;;;;;;;18.50;10.13;;;2.60;99.90;;;;;;5078506;28;20055;-56
2023/12/16 04:07:16;;;;;;;20.00;11.43;;;2.60;99.90;;;;;;5078560;28;20028;-56
2023/12/16 04:09:42;;;;;;;35.80;17.02;;;2.50;99.90;;;;;;5078540;28;20454;-56
2023/12/16 04:12:09;;;;;;;35.97;16.98;;;2.60;99.90;;;;;;5078338;28;20020;-56
2023/12/16 04:14:41;;;;;;;25.55;11.98;;;2.60;99.90;;;;;;5078061;27;20047;-56
2023/12/16 04:17:07;;;;;;;45.85;20.02;;;2.60;99.90;;;;;;5078105;28;20021;-56
2023/12/16 04:19:33;;;;;;;15.73;8.75;;;2.70;99.90;;;;;;5078185;28;20029;-56
2023/12/16 04:21:59;;;;;;;12.82;7.47;;;2.80;99.90;;;;;;5078123;28;20044;-56
2023/12/16 04:24:25;;;;;;;11.27;7.30;;;2.70;99.90;;;;;;5078091;28;20036;-56
2023/12/16 04:26:51;;;;;;;13.18;7.90;;;2.80;99.90;;;;;;5077927;28;20466;-56
2023/12/16 04:29:17;;;;;;;11.95;6.95;;;2.70;99.90;;;;;;5077904;28;20032;-56
2023/12/16 04:31:42;;;;;;;17.48;8.98;;;2.70;99.90;;;;;;5077956;27;20308;-56
2023/12/16 04:34:08;;;;;;;15.00;8.70;;;2.80;99.90;;;;;;5077917;28;20453;-56
2023/12/16 04:36:34;;;;;;;15.20;7.72;;;2.80;99.90;;;;;;5077662;28;20032;-56
2023/12/16 04:39:00;;;;;;;13.55;7.40;;;2.80;99.90;;;;;;5077889;28;20138;-56
2023/12/16 04:41:26;;;;;;;12.93;7.88;;;2.80;99.90;;;;;;5077627;28;20111;-56
2023/12/16 04:43:53;;;;;;;12.57;7.13;;;2.80;99.90;;;;;;5077762;28;20020;-56
2023/12/16 04:46:22;;;;;;;12.05;7.97;;;2.80;99.90;;;;;;5077453;27;20040;-56
2023/12/16 04:48:48;;;;;;;11.38;7.50;;;2.70;99.90;;;;;;5077533;28;20363;-56
2023/12/16 04:51:14;;;;;;;10.95;6.60;;;2.80;99.90;;;;;;5077481;28;20035;-56
2023/12/16 04:53:41;;;;;;;13.57;8.05;;;2.80;99.90;;;;;;5077530;28;20020;-56
2023/12/16 04:56:07;;;;;;;15.32;9.07;;;2.80;99.90;;;;;;5077402;28;20035;-56
2023/12/16 04:58:34;;;;;;;15.32;8.23;;;2.80;99.90;;;;;;5077240;28;20056;-56
2023/12/16 05:01:00;;;;;;;13.00;7.85;;;2.80;99.90;;;;;;5077222;27;20040;-56
2023/12/16 05:03:26;;;;;;;12.90;8.13;;;2.80;99.90;;;;;;5077396;28;20343;-56
2023/12/16 05:05:52;;;;;;;28.25;14.18;;;2.80;99.90;;;;;;5077259;28;20058;-56
2023/12/16 05:08:19;;;;;;;22.38;11.93;;;2.80;99.90;;;;;;5077260;28;20047;-56
2023/12/16 05:10:47;;;;;;;14.98;9.00;;;2.80;99.90;;;;;;5077118;28;20064;-56
2023/12/16 05:13:15;;;;;;;15.30;9.30;;;2.80;99.90;;;;;;5077279;28;20098;-56
2023/12/16 05:15:41;;;;;;;14.63;8.77;;;2.80;99.90;;;;;;5077021;27;20099;-57
2023/12/16 05:18:08;;;;;;;17.48;9.25;;;2.80;99.90;;;;;;5075795;28;20021;-56
2023/12/16 05:20:35;;;;;;;16.02;9.27;;;2.80;99.90;;;;;;5076984;28;20144;-56
2023/12/16 05:23:02;;;;;;;18.55;10.23;;;2.70;99.90;;;;;;5077254;28;20052;-56
2023/12/16 05:25:29;;;;;;;23.15;13.18;;;2.70;99.90;;;;;;5076853;28;20113;-56
2023/12/16 05:27:56;;;;;;;20.88;12.05;;;2.80;99.90;;;;;;5076864;28;20054;-56
2023/12/16 05:30:22;;;;;;;27.08;14.27;;;2.80;99.90;;;;;;5076726;28;20021;-56
2023/12/16 05:32:48;;;;;;;30.05;16.00;;;2.80;99.90;;;;;;5076598;27;20367;-56
2023/12/16 05:35:15;;;;;;;23.70;12.82;;;2.70;99.90;;;;;;5076802;28;20035;-56
2023/12/16 05:37:41;;;;;;;23.33;13.77;;;2.70;99.90;;;;;;5076459;28;20429;-56
2023/12/16 05:40:08;;;;;;;20.92;12.40;;;2.60;99.90;;;;;;5076667;28;20050;-56
2023/12/16 05:42:35;;;;;;;28.80;14.82;;;2.70;99.90;;;;;;5076593;28;20413;-56
2023/12/16 05:45:01;;;;;;;24.45;14.55;;;2.40;99.90;;;;;;5076628;28;20161;-56
2023/12/16 05:47:27;;;;;;;27.10;14.25;;;2.30;99.90;;;;;;5076202;27;20032;-56
2023/12/16 05:49:53;;;;;;;19.88;11.15;;;2.10;99.90;;;;;;5076351;28;20096;-56
2023/12/16 05:52:19;;;;;;;22.63;12.93;;;2.00;99.90;;;;;;5076360;28;20029;-56
2023/12/16 05:54:45;;;;;;;19.65;11.65;;;1.80;99.90;;;;;;5076338;28;20059;-56
2023/12/16 05:57:11;;;;;;;18.85;10.73;;;1.70;99.90;;;;;;5076241;28;20021;-56
2023/12/16 05:59:36;;;;;;;19.80;10.95;;;1.60;99.90;;;;;;5076294;28;20032;-56
2023/12/16 06:02:02;;;;;;;23.33;13.30;;;1.50;99.90;;;;;;5076083;27;20041;-56
2023/12/16 06:04:29;;;;;;;17.60;11.13;;;1.50;99.90;;;;;;5076255;28;20024;-56
2023/12/16 06:06:56;;;;;;;21.27;12.00;;;1.40;99.90;;;;;;5075942;28;20436;-56
2023/12/16 06:09:22;;;;;;;21.15;11.65;;;1.40;99.90;;;;;;5076049;28;20039;-56
2023/12/16 06:11:48;;;;;;;23.77;11.30;;;1.30;99.90;;;;;;5075338;28;20023;-56
2023/12/16 06:14:14;;;;;;;19.67;11.48;;;1.50;99.90;;;;;;5075999;28;20024;-56
2023/12/16 06:16:40;;;;;;;33.90;17.05;;;1.60;99.90;;;;;;5075876;28;20020;-56
2023/12/16 06:19:06;;;;;;;43.90;21.25;;;1.60;99.90;;;;;;5075784;27;20033;-56
2023/12/16 06:21:32;;;;;;;44.55;21.00;;;1.50;99.90;;;;;;5075816;28;20020;-56
2023/12/16 06:24:00;;;;;;;56.40;23.85;;;1.30;99.90;;;;;;5076149;28;20032;-56
2023/12/16 06:26:27;;;;;;;48.05;23.05;;;1.10;99.90;;;;;;5075776;28;20060;-56
2023/12/16 06:28:53;;;;;;;72.15;30.98;;;0.90;99.90;;;;;;5075789;28;20134;-56
2023/12/16 06:31:19;;;;;;;70.30;27.98;;;0.80;99.90;;;;;;5075787;28;20031;-56
2023/12/16 06:33:45;;;;;;;55.67;24.95;;;0.80;99.90;;;;;;5075524;27;20036;-56
2023/12/16 06:36:11;;;;;;;84.47;38.38;;;0.90;99.90;;;;;;5075416;28;20042;-56
2023/12/16 06:38:38;;;;;;;160.55;52.45;;;0.80;99.90;;;;;;5075652;28;20025;-56
2023/12/16 06:41:05;;;;;;;133.32;45.17;;;0.80;99.90;;;;;;5075570;28;20033;-56
2023/12/16 06:43:30;;;;;;;87.63;33.92;;;0.70;99.90;;;;;;5075523;28;20363;-56
2023/12/16 06:45:56;;;;;;;70.65;29.25;;;0.70;99.90;;;;;;5075451;28;20036;-56
2023/12/16 06:48:22;;;;;;;47.38;22.48;;;0.60;99.90;;;;;;5075227;27;20132;-56
2023/12/16 06:50:51;;;;;;;40.60;19.88;;;0.50;99.90;;;;;;5075305;28;20032;-56
2023/12/16 06:53:17;;;;;;;39.85;19.13;;;0.40;99.90;;;;;;5075423;28;20103;-56
2023/12/16 06:55:43;;;;;;;29.50;15.68;;;0.40;99.90;;;;;;5075363;28;20104;-56
2023/12/16 06:58:10;;;;;;;29.40;15.20;;;0.40;99.90;;;;;;5075327;28;20048;-56
2023/12/16 07:00:36;;;;;;;43.65;21.83;;;0.50;99.90;;;;;;5075333;28;20430;-56
2023/12/16 07:03:02;;;;;;;49.33;22.88;;;0.60;99.90;;;;;;5075346;28;20070;-56
2023/12/16 07:05:28;;;;;;;40.88;20.33;;;0.70;99.90;;;;;;5075240;27;20032;-56
2023/12/16 07:07:54;;;;;;;43.08;21.42;;;0.70;99.90;;;;;;5075198;28;20021;-56
2023/12/16 07:10:20;;;;;;;37.95;20.95;;;1.00;99.90;;;;;;5075226;28;20099;-56
2023/12/16 07:12:46;;;;;;;39.65;22.55;;;1.20;99.90;;;;;;5075231;28;20108;-56
2023/12/16 07:15:12;;;;;;;49.22;26.20;;;1.20;99.90;;;;;;5075317;28;20422;-56
2023/12/16 07:17:40;;;;;;;38.97;21.90;;;1.30;99.90;;;;;;5074985;28;20111;-56
2023/12/16 07:20:08;;;;;;;33.13;18.48;;;1.60;99.90;;;;;;5075118;27;20112;-56
2023/12/16 07:22:34;;;;;;;35.35;18.48;;;2.20;99.90;;;;;;5076786;28;20048;-56
2023/12/16 07:24:59;;;;;;;34.30;17.63;;;3.40;99.90;;;;;;5079714;28;20032;-56
2023/12/16 07:27:25;;;;;;;38.00;16.70;;;4.70;99.90;;;;;;5079067;28;20196;-56
2023/12/16 07:29:54;;;;;;;33.17;16.75;;;6.00;98.90;;;;;;5079076;28;20067;-57
2023/12/16 07:32:20;;;;;;;41.22;21.38;;;6.70;96.60;;;;;;5079056;28;20033;-56
2023/12/16 07:34:49;;;;;;;42.65;22.45;;;8.20;94.20;;;;;;5079022;27;20025;-57
2023/12/16 07:37:15;;;;;;;45.58;23.33;;;9.60;89.00;;;;;;5079097;28;20154;-57
2023/12/16 07:39:41;;;;;;;46.75;24.20;;;10.70;79.60;;;;;;5078866;28;20024;-57
2023/12/16 07:42:07;;;;;;;59.40;30.83;;;10.90;76.90;;;;;;5078806;28;20032;-57
2023/12/16 07:44:33;;;;;;;60.97;32.70;;;12.40;67.30;;;;;;5078828;28;20119;-57
2023/12/16 07:46:59;;;;;;;103.88;46.42;;;12.80;62.20;;;;;;5078713;28;20036;-57
2023/12/16 07:49:25;;;;;;;105.60;48.28;;;13.30;56.80;;;;;;5077159;28;20094;-57
2023/12/16 07:51:54;;;;;;;101.40;45.63;;;11.90;56.50;;;;;;5078672;28;20103;-57
2023/12/16 07:54:24;;;;;;;115.22;63.20;;;11.90;58.80;;;;;;5078650;28;20063;-57
2023/12/16 07:56:50;;;;;;;93.30;51.20;;;11.10;57.80;;;;;;5078603;28;20474;-57
2023/12/16 07:59:17;;;;;;;75.88;42.60;;;9.80;62.30;;;;;;5078630;28;20032;-57
2023/12/16 08:01:52;;;;;;;73.25;38.50;;;9.30;63.10;;;;;;5078459;28;20569;-57
2023/12/16 08:04:18;;;;;;;63.60;33.00;;;8.10;69.50;;;;;;5078562;28;20075;-57
2023/12/16 08:06:45;;;;;;;60.30;31.17;;;7.10;73.40;;;;;;5078178;27;20032;-57
2023/12/16 08:09:10;;;;;;;55.03;29.25;;;6.30;77.20;;;;;;5078307;28;20027;-57
2023/12/16 08:11:36;;;;;;;58.97;29.20;;;6.50;77.60;;;;;;5078316;28;20020;-57
2023/12/16 08:14:03;;;;;;;53.72;29.77;;;6.10;79.90;;;;;;5078221;28;20025;-57
2023/12/16 08:16:29;;;;;;;104.00;44.55;;;5.80;82.20;;;;;;5077999;28;20547;-57
2023/12/16 08:18:55;;;;;;;82.40;42.28;;;5.50;85.00;;;;;;5077905;27;20052;-57
2023/12/16 08:21:21;;;;;;;57.08;29.95;;;5.50;88.10;;;;;;5078197;28;20108;-57
2023/12/16 08:23:47;;;;;;;48.60;27.40;;;5.80;88.10;;;;;;5078083;28;20067;-56
2023/12/16 08:26:13;;;;;;;48.17;26.00;;;5.90;85.70;;;;;;5077991;28;20035;-56
2023/12/16 08:28:40;;;;;;;50.92;27.27;;;5.90;86.70;;;;;;5077951;28;20033;-56
2023/12/16 08:31:06;;;;;;;50.53;27.80;;;5.30;87.90;;;;;;5077866;28;20028;-56
2023/12/16 08:33:33;;;;;;;52.95;28.00;;;5.50;89.60;;;;;;5077160;27;20057;-56
2023/12/16 08:35:59;;;;;;;51.75;28.08;;;5.40;89.10;;;;;;5077697;28;20033;-56
2023/12/16 08:38:25;;;;;;;60.00;29.65;;;5.20;90.30;;;;;;5077600;28;20054;-56
2023/12/16 08:40:53;;;;;;;54.45;27.30;;;4.90;91.00;;;;;;5077852;28;20032;-56
2023/12/16 08:43:19;;;;;;;48.72;28.00;;;4.80;90.80;;;;;;5077733;28;20387;-56
2023/12/16 08:45:45;;;;;;;58.08;30.25;;;4.80;91.60;;;;;;5077728;28;20500;-56
2023/12/16 08:48:11;;;;;;;58.55;29.92;;;4.60;91.80;;;;;;5077438;27;20051;-56
2023/12/16 08:50:36;;;;;;;58.20;30.00;;;4.70;92.80;;;;;;5077631;28;20021;-56
2023/12/16 08:53:03;;;;;;;64.30;31.00;;;4.60;92.40;;;;;;5077543;28;20469;-56
2023/12/16 08:55:29;;;;;;;67.10;31.00;;;4.50;92.10;;;;;;5077490;28;20078;-56
2023/12/16 08:57:54;;;;;;;62.88;29.80;;;4.80;92.50;;;;;;5077398;28;20032;-56
2023/12/16 09:00:20;;;;;;;52.13;27.08;;;4.70;92.10;;;;;;5077592;28;20052;-56
2023/12/16 09:02:46;;;;;;;62.17;30.25;;;4.90;92.00;;;;;;5077254;27;20028;-56
2023/12/16 09:05:12;;;;;;;58.50;29.70;;;5.00;92.10;;;;;;5077394;28;20043;-56
2023/12/16 09:07:38;;;;;;;60.08;28.83;;;4.90;91.40;;;;;;5077431;28;20467;-56
2023/12/16 09:10:05;;;;;;;52.90;27.45;;;5.50;92.40;;;;;;5077119;28;20024;-56
2023/12/16 09:12:31;;;;;;;62.28;29.83;;;6.40;91.60;;;;;;5076956;28;20024;-57
2023/12/16 09:14:57;;;;;;;53.10;26.08;;;7.60;89.70;;;;;;5077183;27;20382;-57
2023/12/16 09:17:23;;;;;;;69.75;28.17;;;8.50;82.10;;;;;;5077055;28;20405;-57
2023/12/16 09:19:49;;;;;;;50.05;27.73;;;9.00;79.50;;;;;;5076952;28;20453;-57
2023/12/16 09:22:16;;;;;;;57.55;28.70;;;9.10;77.70;;;;;;5077007;28;20029;-57
2023/12/16 09:24:42;;;;;;;56.92;29.58;;;9.80;73.80;;;;;;5077193;28;20051;-57
2023/12/16 09:27:08;;;;;;;58.25;31.67;;;9.50;72.30;;;;;;5076845;28;20029;-57
2023/12/16 09:29:34;;;;;;;64.90;31.05;;;9.00;72.90;;;;;;5076738;28;20459;-57
2023/12/16 09:32:00;;;;;;;63.60;30.80;;;8.70;74.20;;;;;;5076749;28;20024;-57
2023/12/16 09:34:26;;;;;;;51.83;28.83;;;8.60;74.00;;;;;;5076804;27;20059;-57
2023/12/16 09:36:52;;;;;;;46.83;26.05;;;8.10;72.70;;;;;;5076566;28;20024;-57
2023/12/16 09:39:18;;;;;;;56.97;28.65;;;7.60;76.50;;;;;;5076660;28;20485;-56
2023/12/16 09:41:45;;;;;;;71.13;33.97;;;7.40;75.40;;;;;;5076593;28;20097;-56
2023/12/16 09:44:16;;;;;;;62.42;30.08;;;6.90;79.20;;;;;;5076573;28;20027;-56
2023/12/16 09:46:43;;;;;;;63.60;33.47;;;6.90;79.60;;;;;;5076462;28;20355;-56
2023/12/16 09:49:10;;;;;;;68.97;32.60;;;6.70;81.50;;;;;;5076178;27;20040;-57
2023/12/16 09:51:36;;;;;;;45.38;24.13;;;7.00;83.60;;;;;;5076324;28;20029;-57
2023/12/16 09:54:02;;;;;;;39.50;21.80;;;7.50;80.50;;;;;;5076236;28;20021;-57
2023/12/16 09:56:30;;;;;;;48.47;22.90;;;8.40;75.80;;;;;;5076305;28;20044;-57
2023/12/16 09:58:57;;;;;;;34.75;16.73;;;9.60;74.40;;;;;;5076335;28;20036;-57
2023/12/16 10:01:24;;;;;;;33.58;15.68;;;9.90;67.10;;;;;;5076186;28;20496;-57
2023/12/16 10:03:51;;;;;;;38.95;19.42;;;9.50;65.30;;;;;;5076090;27;20024;-57
2023/12/16 10:06:17;;;;;;;36.25;18.95;;;9.70;68.40;;;;;;5076121;28;20024;-57
2023/12/16 10:08:44;;;;;;;29.23;15.10;;;9.80;66.70;;;;;;5076034;28;20432;-57
2023/12/16 10:11:10;;;;;;;29.50;15.02;;;9.60;65.00;;;;;;5076050;28;20090;-57
2023/12/16 10:13:56;;;;;;;29.17;14.63;;;9.00;69.10;;;;;;5075983;28;20029;-57
2023/12/16 10:16:22;;;;;;;19.35;12.45;;;9.00;66.00;;;;;;5075953;28;20017;-57
2023/12/16 10:18:55;;;;;;;23.33;12.50;;;8.00;64.70;;;;;;5075788;27;20039;-57
2023/12/16 10:21:26;;;;;;;19.83;12.20;;;7.80;66.00;;;;;;5076051;28;20090;-56
2023/12/16 10:23:55;;;;;;;27.95;13.18;;;7.80;65.40;;;;;;5075841;28;20037;-56
2023/12/16 10:26:22;;;;;;;31.58;14.55;;;7.60;67.60;;;;;;5075732;28;20063;-56
2023/12/16 10:28:49;;;;;;;24.25;14.02;;;7.30;69.70;;;;;;5075724;28;20040;-57
2023/12/16 10:31:15;;;;;;;24.83;13.63;;;7.40;70.70;;;;;;5075671;28;20462;-57
2023/12/16 10:33:45;;;;;;;41.58;15.52;;;7.90;71.80;;;;;;5075545;27;20024;-57
2023/12/16 10:36:11;;;;;;;29.90;15.77;;;8.50;69.00;;;;;;5075616;28;20055;-57
2023/12/16 10:38:37;;;;;;;28.48;14.52;;;8.60;67.80;;;;;;5075723;28;20029;-57
2023/12/16 10:41:03;;;;;;;28.58;14.75;;;8.40;66.80;;;;;;5075611;28;20040;-57
2023/12/16 10:43:29;;;;;;;31.77;15.77;;;8.10;67.80;;;;;;5075589;28;20028;-57
2023/12/16 10:45:58;;;;;;;31.27;15.20;;;8.00;68.80;;;;;;5075561;28;20421;-57
2023/12/16 10:48:29;;;;;;;34.20;16.48;;;7.80;69.10;;;;;;5075412;28;20396;-57
2023/12/16 10:50:57;;;;;;;33.60;16.90;;;8.20;69.50;;;;;;5075562;27;20067;-57
2023/12/16 10:54:03;;;;;;;38.55;16.92;;;8.00;69.40;;;;;;5075494;28;20021;-57
2023/12/16 10:56:30;;;;;;;25.60;15.73;;;8.30;70.00;;;;;;5062785;28;20505;-57
2023/12/16 10:59:06;;;;;;;23.13;14.32;;;8.60;67.30;;;;;;5075220;28;20021;-57
2023/12/16 11:01:37;;;;;;;42.97;18.98;;;8.50;66.20;;;;;;5074201;28;20074;-57
2023/12/16 11:04:23;;;;;;;28.73;17.52;;;8.30;68.30;;;;;;5075230;27;20040;-57
2023/12/16 11:07:09;;;;;;;33.75;17.77;;;8.00;68.40;;;;;;5075292;28;20079;-57
2023/12/16 11:09:36;;;;;;;30.75;16.10;;;7.30;70.30;;;;;;5075305;28;20260;-57
2023/12/16 11:12:04;;;;;;;43.00;22.48;;;7.00;73.60;;;;;;5075344;28;20030;-56
2023/12/16 11:14:33;;;;;;;38.88;19.90;;;7.20;72.70;;;;;;5075213;28;20021;-56
2023/12/16 11:17:18;;;;;;;42.50;21.67;;;7.20;72.20;;;;;;5075175;28;20239;-56
2023/12/16 11:19:52;;;;;;;34.72;16.02;;;7.00;73.00;;;;;;5075137;27;20115;-56
2023/12/16 11:22:22;;;;;;;36.42;17.90;;;7.00;73.10;;;;;;5075251;28;20092;-56
2023/12/16 11:24:52;;;;;;;31.52;17.60;;;7.20;72.80;;;;;;5075359;28;20024;-56
2023/12/16 11:27:20;;;;;;;36.15;17.92;;;7.30;73.00;;;;;;5075060;28;20029;-57
2023/12/16 11:29:47;;;;;;;33.28;16.50;;;7.90;73.40;;;;;;5074994;28;20035;-57
2023/12/16 11:32:13;;;;;;;48.20;17.77;;;8.20;70.60;;;;;;5074972;28;20025;-57
2023/12/16 11:34:38;;;;;;;41.40;17.65;;;8.00;68.20;;;;;;5075045;28;20409;-56
2023/12/16 11:37:04;;;;;;;34.63;17.23;;;8.00;68.00;;;;;;5074849;27;20386;-56
2023/12/16 11:39:40;;;;;;;29.92;15.48;;;7.10;69.40;;;;;;5074991;28;20031;-56
2023/12/16 11:42:08;;;;;;;38.47;17.58;;;6.80;72.10;;;;;;5074959;28;20039;-56
2023/12/16 11:44:51;;;;;;;27.75;15.02;;;7.30;75.80;;;;;;5074897;28;20374;-57
2023/12/16 11:47:27;;;;;;;30.63;16.42;;;8.00;68.70;;;;;;5074923;28;20029;-56
2023/12/16 11:49:56;;;;;;;36.35;16.27;;;8.10;67.30;;;;;;5074667;28;20467;-56
2023/12/16 11:52:24;;;;;;;30.85;16.05;;;7.80;70.20;;;;;;5074894;27;20478;-56
2023/12/16 11:54:54;;;;;;;37.58;17.70;;;7.60;69.00;;;;;;5074795;28;20026;-56
2023/12/16 11:57:24;;;;;;;29.88;15.88;;;7.10;71.20;;;;;;5074847;28;20548;-56
2023/12/16 11:59:51;;;;;;;27.27;14.65;;;7.00;71.00;;;;;;5074939;28;20067;-56
2023/12/16 12:02:18;;;;;;;36.67;15.88;;;7.60;70.60;;;;;;5074820;28;20033;-56
2023/12/16 12:04:44;;;;;;;35.15;16.35;;;7.90;70.70;;;;;;5075330;28;20028;-56
2023/12/16 12:07:11;;;;;;;34.90;15.50;;;8.10;69.20;;;;;;5074630;27;20070;-56
2023/12/16 12:09:42;;;;;;;30.48;16.00;;;8.50;66.70;;;;;;5076097;28;20384;-56
2023/12/16 12:12:10;;;;;;;28.23;15.40;;;9.00;64.90;;;;;;5078411;28;20028;-56
2023/12/16 12:14:45;;;;;;;30.67;15.65;;;9.00;63.70;;;;;;5078350;28;20028;-56
2023/12/16 12:17:11;;;;;;;26.05;15.60;;;8.40;64.00;;;;;;5078283;28;20021;-56
2023/12/16 12:19:37;;;;;;;28.67;15.95;;;8.30;64.40;;;;;;5078078;27;20036;-56
2023/12/16 12:22:04;;;;;;;27.60;14.73;;;8.20;66.80;;;;;;5078187;28;20513;-56
2023/12/16 12:24:30;;;;;;;23.73;14.57;;;8.70;65.10;;;;;;5078125;28;20020;-56
2023/12/16 12:26:56;;;;;;;24.42;15.30;;;9.00;64.50;;;;;;5078227;28;20024;-56
2023/12/16 12:29:22;;;;;;;25.05;14.13;;;8.80;62.60;;;;;;5078160;28;20025;-56
2023/12/16 12:31:48;;;;;;;25.85;14.77;;;8.70;63.20;;;;;;5077826;28;20029;-56
2023/12/16 12:34:21;;;;;;;28.20;15.43;;;8.50;64.70;;;;;;5077930;28;20039;-56
2023/12/16 12:36:54;;;;;;;26.90;15.55;;;8.50;64.60;;;;;;5077668;27;20115;-56